sensor_id;sensor_type;location;lat;lon;timestamp;P1;durP1;ratioP1;P2;durP2;ratioP2
17173;SDS011;8702;48.130;-1.696;2022-11-04T00:01:14;12.13;;;3.13;;
17173;SDS011;8702;48.130;-1.696;2022-11-04T00:03:41;10.50;;;2.72;;
17173;SDS011;8702;48.130;-1.696;2022-11-04T00:06:08;9.95;;;2.83;;
17173;SDS011;8702;48.130;-1.696;2022-11-04T00:08:36;9.43;;;2.40;;
17173;SDS011;8702;48.130;-1.696;2022-11-04T00:11:03;7.78;;;2.45;;
17173;SDS011;8702;48.130;-1.696;2022-11-04T00:13:48;9.88;;;2.85;;
17173;SDS011;8702;48.130;-1.696;2022-11-04T00:16:15;8.02;;;2.60;;
17173;SDS011;8702;48.130;-1.696;2022-11-04T00:18:59;12.02;;;2.75;;
17173;SDS011;8702;48.130;-1.696;2022-11-04T00:21:27;10.40;;;2.55;;
17173;SDS011;8702;48.130;-1.696;2022-11-04T00:24:13;8.60;;;2.53;;
17173;SDS011;8702;48.130;-1.696;2022-11-04T00:27:09;9.77;;;2.63;;
17173;SDS011;8702;48.130;-1.696;2022-11-04T00:29:54;11.85;;;2.70;;
17173;SDS011;8702;48.130;-1.696;2022-11-04T00:32:21;11.05;;;2.78;;
17173;SDS011;8702;48.130;-1.696;2022-11-04T00:35:06;8.23;;;2.45;;
17173;SDS011;8702;48.130;-1.696;2022-11-04T00:37:35;8.93;;;2.70;;
17173;SDS011;8702;48.130;-1.696;2022-11-04T00:40:04;8.98;;;2.60;;
17173;SDS011;8702;48.130;-1.696;2022-11-04T00:42:32;7.22;;;2.53;;
17173;SDS011;8702;48.130;-1.696;2022-11-04T00:44:59;11.13;;;2.58;;
17173;SDS011;8702;48.130;-1.696;2022-11-04T00:47:26;11.38;;;3.00;;
17173;SDS011;8702;48.130;-1.696;2022-11-04T00:49:53;12.50;;;2.83;;
17173;SDS011;8702;48.130;-1.696;2022-11-04T00:52:21;12.50;;;2.70;;
17173;SDS011;8702;48.130;-1.696;2022-11-04T00:54:53;12.45;;;3.03;;
17173;SDS011;8702;48.130;-1.696;2022-11-04T00:57:21;11.20;;;2.78;;
17173;SDS011;8702;48.130;-1.696;2022-11-04T00:59:48;10.65;;;2.72;;
17173;SDS011;8702;48.130;-1.696;2022-11-04T01:02:15;10.73;;;2.65;;
17173;SDS011;8702;48.130;-1.696;2022-11-04T01:04:42;9.27;;;2.70;;
17173;SDS011;8702;48.130;-1.696;2022-11-04T01:07:09;8.82;;;2.70;;
17173;SDS011;8702;48.130;-1.696;2022-11-04T01:09:36;10.98;;;3.10;;
17173;SDS011;8702;48.130;-1.696;2022-11-04T01:12:03;9.23;;;2.72;;
17173;SDS011;8702;48.130;-1.696;2022-11-04T01:14:32;12.27;;;2.85;;
17173;SDS011;8702;48.130;-1.696;2022-11-04T01:16:59;9.60;;;2.95;;
17173;SDS011;8702;48.130;-1.696;2022-11-04T01:19:26;10.95;;;3.17;;
17173;SDS011;8702;48.130;-1.696;2022-11-04T01:21:53;11.40;;;3.00;;
17173;SDS011;8702;48.130;-1.696;2022-11-04T01:24:20;9.55;;;2.80;;
17173;SDS011;8702;48.130;-1.696;2022-11-04T01:26:47;10.00;;;3.00;;
17173;SDS011;8702;48.130;-1.696;2022-11-04T01:29:14;11.02;;;2.83;;
17173;SDS011;8702;48.130;-1.696;2022-11-04T01:31:42;12.73;;;3.25;;
17173;SDS011;8702;48.130;-1.696;2022-11-04T01:34:09;11.27;;;2.97;;
17173;SDS011;8702;48.130;-1.696;2022-11-04T01:36:36;12.82;;;3.25;;
17173;SDS011;8702;48.130;-1.696;2022-11-04T01:39:03;12.23;;;2.97;;
17173;SDS011;8702;48.130;-1.696;2022-11-04T01:41:31;12.13;;;3.10;;
17173;SDS011;8702;48.130;-1.696;2022-11-04T01:43:59;9.45;;;2.78;;
17173;SDS011;8702;48.130;-1.696;2022-11-04T01:46:33;10.85;;;2.65;;
17173;SDS011;8702;48.130;-1.696;2022-11-04T01:49:07;9.98;;;2.67;;
17173;SDS011;8702;48.130;-1.696;2022-11-04T01:51:47;12.77;;;2.80;;
17173;SDS011;8702;48.130;-1.696;2022-11-04T01:54:15;12.77;;;2.92;;
17173;SDS011;8702;48.130;-1.696;2022-11-04T01:56:43;13.48;;;3.22;;
17173;SDS011;8702;48.130;-1.696;2022-11-04T01:59:12;9.95;;;2.97;;
17173;SDS011;8702;48.130;-1.696;2022-11-04T02:01:41;11.75;;;3.00;;
17173;SDS011;8702;48.130;-1.696;2022-11-04T02:04:10;11.57;;;2.80;;
17173;SDS011;8702;48.130;-1.696;2022-11-04T02:06:51;10.65;;;2.50;;
17173;SDS011;8702;48.130;-1.696;2022-11-04T02:09:19;9.60;;;3.00;;
17173;SDS011;8702;48.130;-1.696;2022-11-04T02:11:47;12.23;;;2.80;;
17173;SDS011;8702;48.130;-1.696;2022-11-04T02:14:47;7.95;;;2.50;;
17173;SDS011;8702;48.130;-1.696;2022-11-04T02:26:23;8.63;;;2.50;;
17173;SDS011;8702;48.130;-1.696;2022-11-04T02:29:16;9.48;;;2.60;;
17173;SDS011;8702;48.130;-1.696;2022-11-04T02:31:53;8.02;;;2.63;;
17173;SDS011;8702;48.130;-1.696;2022-11-04T02:34:29;8.80;;;2.37;;
17173;SDS011;8702;48.130;-1.696;2022-11-04T02:37:02;10.57;;;2.60;;
17173;SDS011;8702;48.130;-1.696;2022-11-04T02:39:36;8.80;;;2.65;;
17173;SDS011;8702;48.130;-1.696;2022-11-04T02:42:08;9.50;;;2.30;;
17173;SDS011;8702;48.130;-1.696;2022-11-04T02:44:41;8.57;;;2.42;;
17173;SDS011;8702;48.130;-1.696;2022-11-04T02:47:14;14.02;;;2.70;;
17173;SDS011;8702;48.130;-1.696;2022-11-04T02:49:44;11.20;;;3.13;;
17173;SDS011;8702;48.130;-1.696;2022-11-04T02:52:15;10.97;;;2.77;;
17173;SDS011;8702;48.130;-1.696;2022-11-04T02:54:45;9.27;;;2.25;;
17173;SDS011;8702;48.130;-1.696;2022-11-04T02:57:15;6.60;;;2.17;;
17173;SDS011;8702;48.130;-1.696;2022-11-04T02:59:46;8.48;;;2.35;;
17173;SDS011;8702;48.130;-1.696;2022-11-04T03:02:15;10.75;;;2.75;;
17173;SDS011;8702;48.130;-1.696;2022-11-04T03:04:45;7.55;;;2.38;;
17173;SDS011;8702;48.130;-1.696;2022-11-04T03:07:14;8.65;;;2.40;;
17173;SDS011;8702;48.130;-1.696;2022-11-04T03:09:44;8.77;;;2.10;;
17173;SDS011;8702;48.130;-1.696;2022-11-04T03:12:15;7.47;;;2.37;;
17173;SDS011;8702;48.130;-1.696;2022-11-04T03:14:44;9.77;;;2.30;;
17173;SDS011;8702;48.130;-1.696;2022-11-04T03:17:16;7.53;;;2.38;;
17173;SDS011;8702;48.130;-1.696;2022-11-04T03:19:46;7.88;;;2.28;;
17173;SDS011;8702;48.130;-1.696;2022-11-04T03:22:16;9.00;;;2.20;;
17173;SDS011;8702;48.130;-1.696;2022-11-04T03:24:44;9.75;;;2.40;;
17173;SDS011;8702;48.130;-1.696;2022-11-04T03:27:15;9.13;;;2.40;;
17173;SDS011;8702;48.130;-1.696;2022-11-04T03:29:48;9.80;;;2.38;;
17173;SDS011;8702;48.130;-1.696;2022-11-04T03:32:22;9.93;;;2.38;;
17173;SDS011;8702;48.130;-1.696;2022-11-04T03:34:50;10.50;;;2.63;;
17173;SDS011;8702;48.130;-1.696;2022-11-04T03:37:17;9.13;;;2.63;;
17173;SDS011;8702;48.130;-1.696;2022-11-04T03:39:48;10.50;;;2.30;;
17173;SDS011;8702;48.130;-1.696;2022-11-04T03:42:15;7.88;;;2.30;;
17173;SDS011;8702;48.130;-1.696;2022-11-04T03:44:47;9.27;;;2.30;;
17173;SDS011;8702;48.130;-1.696;2022-11-04T03:47:14;8.32;;;2.30;;
17173;SDS011;8702;48.130;-1.696;2022-11-04T03:49:44;7.47;;;2.30;;
17173;SDS011;8702;48.130;-1.696;2022-11-04T03:52:11;11.63;;;2.65;;
17173;SDS011;8702;48.130;-1.696;2022-11-04T03:54:39;8.20;;;1.97;;
17173;SDS011;8702;48.130;-1.696;2022-11-04T03:57:20;8.65;;;2.10;;
17173;SDS011;8702;48.130;-1.696;2022-11-04T03:59:59;7.03;;;2.10;;
17173;SDS011;8702;48.130;-1.696;2022-11-04T04:02:31;9.57;;;2.30;;
17173;SDS011;8702;48.130;-1.696;2022-11-04T04:05:02;9.15;;;2.38;;
17173;SDS011;8702;48.130;-1.696;2022-11-04T04:07:32;7.57;;;2.33;;
17173;SDS011;8702;48.130;-1.696;2022-11-04T04:10:03;9.00;;;2.33;;
17173;SDS011;8702;48.130;-1.696;2022-11-04T04:12:53;5.70;;;1.80;;
17173;SDS011;8702;48.130;-1.696;2022-11-04T04:15:22;8.85;;;2.25;;
17173;SDS011;8702;48.130;-1.696;2022-11-04T04:17:51;6.30;;;1.98;;
17173;SDS011;8702;48.130;-1.696;2022-11-04T04:20:22;8.27;;;1.95;;
17173;SDS011;8702;48.130;-1.696;2022-11-04T04:22:51;10.15;;;2.20;;
17173;SDS011;8702;48.130;-1.696;2022-11-04T04:25:20;7.80;;;1.98;;
17173;SDS011;8702;48.130;-1.696;2022-11-04T04:28:12;7.43;;;2.13;;
17173;SDS011;8702;48.130;-1.696;2022-11-04T04:30:40;8.25;;;2.20;;
17173;SDS011;8702;48.130;-1.696;2022-11-04T04:33:08;7.32;;;2.15;;
17173;SDS011;8702;48.130;-1.696;2022-11-04T04:35:39;7.85;;;2.10;;
17173;SDS011;8702;48.130;-1.696;2022-11-04T04:38:08;8.75;;;2.30;;
17173;SDS011;8702;48.130;-1.696;2022-11-04T04:40:58;8.02;;;2.15;;
17173;SDS011;8702;48.130;-1.696;2022-11-04T04:43:44;9.38;;;2.30;;
17173;SDS011;8702;48.130;-1.696;2022-11-04T04:46:28;7.13;;;2.08;;
17173;SDS011;8702;48.130;-1.696;2022-11-04T04:49:02;7.40;;;2.22;;
17173;SDS011;8702;48.130;-1.696;2022-11-04T04:51:31;8.88;;;2.25;;
17173;SDS011;8702;48.130;-1.696;2022-11-04T04:53:58;10.43;;;2.67;;
17173;SDS011;8702;48.130;-1.696;2022-11-04T04:56:25;10.90;;;2.33;;
17173;SDS011;8702;48.130;-1.696;2022-11-04T04:58:52;7.03;;;2.20;;
17173;SDS011;8702;48.130;-1.696;2022-11-04T05:01:20;11.25;;;2.20;;
17173;SDS011;8702;48.130;-1.696;2022-11-04T05:03:47;9.00;;;2.43;;
17173;SDS011;8702;48.130;-1.696;2022-11-04T05:06:14;10.00;;;2.20;;
17173;SDS011;8702;48.130;-1.696;2022-11-04T05:08:43;12.13;;;2.58;;
17173;SDS011;8702;48.130;-1.696;2022-11-04T05:11:13;9.57;;;2.10;;
17173;SDS011;8702;48.130;-1.696;2022-11-04T05:13:40;9.30;;;2.47;;
17173;SDS011;8702;48.130;-1.696;2022-11-04T05:16:08;8.15;;;2.30;;
17173;SDS011;8702;48.130;-1.696;2022-11-04T05:18:36;9.57;;;2.20;;
17173;SDS011;8702;48.130;-1.696;2022-11-04T05:21:03;5.03;;;2.07;;
17173;SDS011;8702;48.130;-1.696;2022-11-04T05:23:31;8.40;;;2.40;;
17173;SDS011;8702;48.130;-1.696;2022-11-04T05:25:59;11.33;;;2.40;;
17173;SDS011;8702;48.130;-1.696;2022-11-04T05:28:27;8.45;;;2.28;;
17173;SDS011;8702;48.130;-1.696;2022-11-04T05:30:54;8.60;;;2.35;;
17173;SDS011;8702;48.130;-1.696;2022-11-04T05:33:21;7.88;;;2.30;;
17173;SDS011;8702;48.130;-1.696;2022-11-04T05:35:48;8.77;;;2.30;;
17173;SDS011;8702;48.130;-1.696;2022-11-04T05:38:15;7.57;;;2.60;;
17173;SDS011;8702;48.130;-1.696;2022-11-04T05:40:43;9.83;;;2.73;;
17173;SDS011;8702;48.130;-1.696;2022-11-04T05:43:11;11.40;;;2.53;;
17173;SDS011;8702;48.130;-1.696;2022-11-04T05:45:38;8.98;;;2.40;;
17173;SDS011;8702;48.130;-1.696;2022-11-04T05:48:06;8.35;;;2.50;;
17173;SDS011;8702;48.130;-1.696;2022-11-04T05:50:33;9.07;;;2.30;;
17173;SDS011;8702;48.130;-1.696;2022-11-04T05:53:00;7.60;;;2.13;;
17173;SDS011;8702;48.130;-1.696;2022-11-04T05:55:27;10.75;;;2.30;;
17173;SDS011;8702;48.130;-1.696;2022-11-04T05:57:55;10.13;;;2.40;;
17173;SDS011;8702;48.130;-1.696;2022-11-04T06:00:25;8.85;;;2.10;;
17173;SDS011;8702;48.130;-1.696;2022-11-04T06:02:52;9.30;;;2.20;;
17173;SDS011;8702;48.130;-1.696;2022-11-04T06:05:21;6.60;;;2.08;;
17173;SDS011;8702;48.130;-1.696;2022-11-04T06:07:48;8.40;;;2.13;;
17173;SDS011;8702;48.130;-1.696;2022-11-04T06:10:15;5.63;;;2.03;;
17173;SDS011;8702;48.130;-1.696;2022-11-04T06:12:42;7.60;;;2.28;;
17173;SDS011;8702;48.130;-1.696;2022-11-04T06:15:10;7.45;;;2.20;;
17173;SDS011;8702;48.130;-1.696;2022-11-04T06:17:38;9.40;;;2.45;;
17173;SDS011;8702;48.130;-1.696;2022-11-04T06:20:06;6.70;;;2.20;;
17173;SDS011;8702;48.130;-1.696;2022-11-04T06:22:33;5.80;;;2.10;;
17173;SDS011;8702;48.130;-1.696;2022-11-04T06:25:00;5.80;;;2.00;;
17173;SDS011;8702;48.130;-1.696;2022-11-04T06:27:28;8.82;;;1.95;;
17173;SDS011;8702;48.130;-1.696;2022-11-04T06:29:55;8.32;;;2.10;;
17173;SDS011;8702;48.130;-1.696;2022-11-04T06:32:22;5.55;;;1.88;;
17173;SDS011;8702;48.130;-1.696;2022-11-04T06:34:50;4.97;;;1.70;;
17173;SDS011;8702;48.130;-1.696;2022-11-04T06:37:17;6.25;;;1.85;;
17173;SDS011;8702;48.130;-1.696;2022-11-04T06:39:44;8.40;;;1.70;;
17173;SDS011;8702;48.130;-1.696;2022-11-04T06:42:11;6.03;;;1.70;;
17173;SDS011;8702;48.130;-1.696;2022-11-04T06:44:38;6.82;;;1.80;;
17173;SDS011;8702;48.130;-1.696;2022-11-04T06:47:07;5.60;;;1.45;;
17173;SDS011;8702;48.130;-1.696;2022-11-04T06:49:35;4.67;;;1.50;;
17173;SDS011;8702;48.130;-1.696;2022-11-04T06:52:03;5.40;;;1.40;;
17173;SDS011;8702;48.130;-1.696;2022-11-04T06:54:31;3.65;;;1.38;;
17173;SDS011;8702;48.130;-1.696;2022-11-04T06:56:58;6.57;;;1.70;;
17173;SDS011;8702;48.130;-1.696;2022-11-04T06:59:27;3.67;;;1.15;;
17173;SDS011;8702;48.130;-1.696;2022-11-04T07:01:54;4.30;;;1.50;;
17173;SDS011;8702;48.130;-1.696;2022-11-04T07:04:21;5.05;;;1.58;;
17173;SDS011;8702;48.130;-1.696;2022-11-04T07:06:48;8.32;;;2.20;;
17173;SDS011;8702;48.130;-1.696;2022-11-04T07:09:16;6.20;;;1.97;;
17173;SDS011;8702;48.130;-1.696;2022-11-04T07:11:44;6.13;;;1.83;;
17173;SDS011;8702;48.130;-1.696;2022-11-04T07:14:11;7.13;;;2.00;;
17173;SDS011;8702;48.130;-1.696;2022-11-04T07:16:39;7.90;;;1.80;;
17173;SDS011;8702;48.130;-1.696;2022-11-04T07:19:06;9.55;;;2.22;;
17173;SDS011;8702;48.130;-1.696;2022-11-04T07:21:33;6.90;;;1.70;;
17173;SDS011;8702;48.130;-1.696;2022-11-04T07:24:00;6.90;;;1.85;;
17173;SDS011;8702;48.130;-1.696;2022-11-04T07:26:29;6.43;;;1.70;;
17173;SDS011;8702;48.130;-1.696;2022-11-04T07:28:56;9.32;;;2.15;;
17173;SDS011;8702;48.130;-1.696;2022-11-04T07:31:25;7.68;;;2.22;;
17173;SDS011;8702;48.130;-1.696;2022-11-04T07:33:52;9.55;;;1.88;;
17173;SDS011;8702;48.130;-1.696;2022-11-04T07:36:19;8.65;;;1.98;;
17173;SDS011;8702;48.130;-1.696;2022-11-04T07:38:46;7.78;;;2.08;;
17173;SDS011;8702;48.130;-1.696;2022-11-04T07:41:14;6.50;;;1.80;;
17173;SDS011;8702;48.130;-1.696;2022-11-04T07:43:46;6.32;;;1.73;;
17173;SDS011;8702;48.130;-1.696;2022-11-04T07:46:14;7.97;;;2.20;;
17173;SDS011;8702;48.130;-1.696;2022-11-04T07:48:41;7.65;;;2.03;;
17173;SDS011;8702;48.130;-1.696;2022-11-04T07:51:10;8.43;;;2.08;;
17173;SDS011;8702;48.130;-1.696;2022-11-04T07:53:38;8.30;;;2.00;;
17173;SDS011;8702;48.130;-1.696;2022-11-04T07:56:06;7.50;;;2.30;;
17173;SDS011;8702;48.130;-1.696;2022-11-04T07:58:36;10.82;;;2.45;;
17173;SDS011;8702;48.130;-1.696;2022-11-04T08:01:06;8.75;;;2.17;;
17173;SDS011;8702;48.130;-1.696;2022-11-04T08:03:34;7.90;;;2.38;;
17173;SDS011;8702;48.130;-1.696;2022-11-04T08:06:02;9.40;;;2.60;;
17173;SDS011;8702;48.130;-1.696;2022-11-04T08:08:30;10.45;;;2.50;;
17173;SDS011;8702;48.130;-1.696;2022-11-04T08:10:58;9.98;;;2.78;;
17173;SDS011;8702;48.130;-1.696;2022-11-04T08:13:28;10.93;;;2.67;;
17173;SDS011;8702;48.130;-1.696;2022-11-04T08:15:55;11.13;;;2.50;;
17173;SDS011;8702;48.130;-1.696;2022-11-04T08:18:23;8.82;;;2.30;;
17173;SDS011;8702;48.130;-1.696;2022-11-04T08:20:50;8.95;;;2.63;;
17173;SDS011;8702;48.130;-1.696;2022-11-04T08:23:19;10.17;;;2.67;;
17173;SDS011;8702;48.130;-1.696;2022-11-04T08:25:46;6.38;;;2.20;;
17173;SDS011;8702;48.130;-1.696;2022-11-04T08:28:13;9.43;;;2.35;;
17173;SDS011;8702;48.130;-1.696;2022-11-04T08:30:50;6.40;;;1.70;;
17173;SDS011;8702;48.130;-1.696;2022-11-04T08:33:18;5.20;;;1.77;;
17173;SDS011;8702;48.130;-1.696;2022-11-04T08:35:46;8.27;;;2.00;;
17173;SDS011;8702;48.130;-1.696;2022-11-04T08:38:14;9.75;;;1.98;;
17173;SDS011;8702;48.130;-1.696;2022-11-04T08:40:41;6.63;;;1.98;;
17173;SDS011;8702;48.130;-1.696;2022-11-04T08:43:08;7.40;;;2.20;;
17173;SDS011;8702;48.130;-1.696;2022-11-04T08:45:37;8.00;;;2.22;;
17173;SDS011;8702;48.130;-1.696;2022-11-04T08:48:05;7.03;;;2.17;;
17173;SDS011;8702;48.130;-1.696;2022-11-04T08:50:32;5.63;;;1.90;;
17173;SDS011;8702;48.130;-1.696;2022-11-04T08:53:00;9.50;;;2.00;;
17173;SDS011;8702;48.130;-1.696;2022-11-04T08:55:28;7.03;;;2.23;;
17173;SDS011;8702;48.130;-1.696;2022-11-04T08:57:55;7.15;;;2.10;;
17173;SDS011;8702;48.130;-1.696;2022-11-04T09:00:22;6.60;;;2.10;;
17173;SDS011;8702;48.130;-1.696;2022-11-04T09:02:50;9.32;;;2.13;;
17173;SDS011;8702;48.130;-1.696;2022-11-04T09:05:19;8.50;;;2.47;;
17173;SDS011;8702;48.130;-1.696;2022-11-04T09:07:46;11.88;;;2.30;;
17173;SDS011;8702;48.130;-1.696;2022-11-04T09:10:15;7.40;;;2.30;;
17173;SDS011;8702;48.130;-1.696;2022-11-04T09:12:42;9.35;;;2.53;;
17173;SDS011;8702;48.130;-1.696;2022-11-04T09:15:10;6.88;;;2.20;;
17173;SDS011;8702;48.130;-1.696;2022-11-04T09:17:37;6.55;;;2.47;;
17173;SDS011;8702;48.130;-1.696;2022-11-04T09:20:05;8.35;;;2.30;;
17173;SDS011;8702;48.130;-1.696;2022-11-04T09:22:32;10.15;;;2.42;;
17173;SDS011;8702;48.130;-1.696;2022-11-04T09:24:59;8.13;;;2.53;;
17173;SDS011;8702;48.130;-1.696;2022-11-04T09:27:28;9.88;;;2.22;;
17173;SDS011;8702;48.130;-1.696;2022-11-04T09:29:55;9.30;;;2.45;;
17173;SDS011;8702;48.130;-1.696;2022-11-04T09:32:23;11.10;;;2.50;;
17173;SDS011;8702;48.130;-1.696;2022-11-04T09:34:50;10.63;;;2.63;;
17173;SDS011;8702;48.130;-1.696;2022-11-04T09:37:19;8.25;;;2.47;;
17173;SDS011;8702;48.130;-1.696;2022-11-04T09:39:46;12.13;;;2.80;;
17173;SDS011;8702;48.130;-1.696;2022-11-04T09:42:23;9.90;;;2.30;;
17173;SDS011;8702;48.130;-1.696;2022-11-04T09:45:01;9.93;;;2.30;;
17173;SDS011;8702;48.130;-1.696;2022-11-04T09:47:30;10.07;;;2.70;;
17173;SDS011;8702;48.130;-1.696;2022-11-04T09:49:58;11.18;;;2.58;;
17173;SDS011;8702;48.130;-1.696;2022-11-04T09:52:30;8.00;;;2.30;;
17173;SDS011;8702;48.130;-1.696;2022-11-04T09:54:59;10.57;;;2.50;;
17173;SDS011;8702;48.130;-1.696;2022-11-04T09:57:28;8.50;;;2.27;;
17173;SDS011;8702;48.130;-1.696;2022-11-04T09:59:58;9.48;;;2.67;;
17173;SDS011;8702;48.130;-1.696;2022-11-04T10:05:11;9.43;;;2.67;;
17173;SDS011;8702;48.130;-1.696;2022-11-04T10:10:29;10.35;;;2.65;;
17173;SDS011;8702;48.130;-1.696;2022-11-04T10:13:02;7.28;;;2.45;;
17173;SDS011;8702;48.130;-1.696;2022-11-04T10:15:36;10.52;;;2.60;;
17173;SDS011;8702;48.130;-1.696;2022-11-04T10:18:10;8.38;;;2.75;;
17173;SDS011;8702;48.130;-1.696;2022-11-04T10:20:43;10.33;;;2.50;;
17173;SDS011;8702;48.130;-1.696;2022-11-04T10:23:18;9.65;;;2.58;;
17173;SDS011;8702;48.130;-1.696;2022-11-04T10:25:47;9.75;;;2.55;;
17173;SDS011;8702;48.130;-1.696;2022-11-04T10:28:15;7.22;;;2.50;;
17173;SDS011;8702;48.130;-1.696;2022-11-04T10:30:45;12.43;;;2.60;;
17173;SDS011;8702;48.130;-1.696;2022-11-04T10:33:18;8.43;;;2.30;;
17173;SDS011;8702;48.130;-1.696;2022-11-04T10:35:47;10.65;;;2.75;;
17173;SDS011;8702;48.130;-1.696;2022-11-04T10:38:16;9.10;;;2.90;;
17173;SDS011;8702;48.130;-1.696;2022-11-04T10:40:46;11.83;;;2.50;;
17173;SDS011;8702;48.130;-1.696;2022-11-04T10:43:14;8.82;;;2.75;;
17173;SDS011;8702;48.130;-1.696;2022-11-04T10:45:44;7.87;;;2.47;;
17173;SDS011;8702;48.130;-1.696;2022-11-04T10:48:16;11.20;;;2.78;;
17173;SDS011;8702;48.130;-1.696;2022-11-04T10:50:48;9.80;;;2.60;;
17173;SDS011;8702;48.130;-1.696;2022-11-04T10:53:18;7.95;;;2.20;;
17173;SDS011;8702;48.130;-1.696;2022-11-04T10:55:48;9.35;;;2.92;;
17173;SDS011;8702;48.130;-1.696;2022-11-04T10:58:19;10.63;;;2.65;;
17173;SDS011;8702;48.130;-1.696;2022-11-04T11:00:47;9.20;;;2.40;;
17173;SDS011;8702;48.130;-1.696;2022-11-04T11:03:24;11.30;;;3.15;;
17173;SDS011;8702;48.130;-1.696;2022-11-04T11:05:52;12.20;;;2.65;;
17173;SDS011;8702;48.130;-1.696;2022-11-04T11:08:28;11.68;;;2.88;;
17173;SDS011;8702;48.130;-1.696;2022-11-04T11:10:56;10.43;;;2.60;;
17173;SDS011;8702;48.130;-1.696;2022-11-04T11:13:25;10.32;;;2.72;;
17173;SDS011;8702;48.130;-1.696;2022-11-04T11:16:03;10.57;;;2.75;;
17173;SDS011;8702;48.130;-1.696;2022-11-04T11:18:32;9.27;;;2.63;;
17173;SDS011;8702;48.130;-1.696;2022-11-04T11:21:06;8.35;;;2.65;;
17173;SDS011;8702;48.130;-1.696;2022-11-04T11:23:39;8.90;;;2.83;;
17173;SDS011;8702;48.130;-1.696;2022-11-04T11:26:07;8.40;;;2.90;;
17173;SDS011;8702;48.130;-1.696;2022-11-04T11:28:35;10.43;;;2.80;;
17173;SDS011;8702;48.130;-1.696;2022-11-04T11:31:10;9.10;;;2.63;;
17173;SDS011;8702;48.130;-1.696;2022-11-04T11:33:49;9.32;;;2.90;;
17173;SDS011;8702;48.130;-1.696;2022-11-04T11:36:19;12.10;;;3.40;;
17173;SDS011;8702;48.130;-1.696;2022-11-04T11:38:51;10.88;;;3.05;;
17173;SDS011;8702;48.130;-1.696;2022-11-04T11:41:18;9.60;;;2.83;;
17173;SDS011;8702;48.130;-1.696;2022-11-04T11:43:53;11.02;;;2.97;;
17173;SDS011;8702;48.130;-1.696;2022-11-04T11:46:22;9.25;;;3.03;;
17173;SDS011;8702;48.130;-1.696;2022-11-04T11:48:51;10.85;;;2.85;;
17173;SDS011;8702;48.130;-1.696;2022-11-04T11:51:22;12.45;;;2.88;;
17173;SDS011;8702;48.130;-1.696;2022-11-04T11:53:57;10.67;;;2.90;;
17173;SDS011;8702;48.130;-1.696;2022-11-04T11:56:28;8.40;;;2.75;;
17173;SDS011;8702;48.130;-1.696;2022-11-04T11:58:59;10.75;;;2.88;;
17173;SDS011;8702;48.130;-1.696;2022-11-04T12:01:33;11.27;;;2.73;;
17173;SDS011;8702;48.130;-1.696;2022-11-04T12:04:03;10.20;;;2.92;;
17173;SDS011;8702;48.130;-1.696;2022-11-04T12:06:35;11.23;;;3.28;;
17173;SDS011;8702;48.130;-1.696;2022-11-04T12:09:16;10.93;;;3.20;;
17173;SDS011;8702;48.130;-1.696;2022-11-04T12:11:49;9.85;;;2.60;;
17173;SDS011;8702;48.130;-1.696;2022-11-04T12:14:19;13.15;;;2.83;;
17173;SDS011;8702;48.130;-1.696;2022-11-04T12:16:51;12.00;;;3.17;;
17173;SDS011;8702;48.130;-1.696;2022-11-04T12:19:34;13.93;;;3.35;;
17173;SDS011;8702;48.130;-1.696;2022-11-04T12:22:07;9.60;;;3.17;;
17173;SDS011;8702;48.130;-1.696;2022-11-04T12:24:37;10.48;;;3.17;;
17173;SDS011;8702;48.130;-1.696;2022-11-04T12:27:08;8.38;;;2.85;;
17173;SDS011;8702;48.130;-1.696;2022-11-04T12:29:44;10.10;;;3.03;;
17173;SDS011;8702;48.130;-1.696;2022-11-04T12:32:18;10.82;;;3.05;;
17173;SDS011;8702;48.130;-1.696;2022-11-04T12:34:52;13.75;;;3.08;;
17173;SDS011;8702;48.130;-1.696;2022-11-04T12:37:26;11.38;;;3.28;;
17173;SDS011;8702;48.130;-1.696;2022-11-04T12:40:04;12.70;;;3.35;;
17173;SDS011;8702;48.130;-1.696;2022-11-04T12:42:37;11.93;;;3.10;;
17173;SDS011;8702;48.130;-1.696;2022-11-04T12:45:11;13.38;;;3.22;;
17173;SDS011;8702;48.130;-1.696;2022-11-04T12:47:44;10.23;;;2.78;;
17173;SDS011;8702;48.130;-1.696;2022-11-04T12:50:25;9.97;;;2.80;;
17173;SDS011;8702;48.130;-1.696;2022-11-04T12:53:05;9.05;;;2.50;;
17173;SDS011;8702;48.130;-1.696;2022-11-04T12:55:39;8.23;;;2.50;;
17173;SDS011;8702;48.130;-1.696;2022-11-04T12:58:12;10.83;;;2.30;;
17173;SDS011;8702;48.130;-1.696;2022-11-04T13:00:42;10.75;;;3.00;;
17173;SDS011;8702;48.130;-1.696;2022-11-04T13:03:12;9.67;;;2.80;;
17173;SDS011;8702;48.130;-1.696;2022-11-04T13:05:43;8.47;;;2.37;;
17173;SDS011;8702;48.130;-1.696;2022-11-04T13:08:15;8.63;;;2.40;;
17173;SDS011;8702;48.130;-1.696;2022-11-04T13:10:47;9.60;;;2.42;;
17173;SDS011;8702;48.130;-1.696;2022-11-04T13:13:15;7.43;;;2.42;;
17173;SDS011;8702;48.130;-1.696;2022-11-04T13:15:44;6.43;;;2.33;;
17173;SDS011;8702;48.130;-1.696;2022-11-04T13:18:14;10.93;;;2.40;;
17173;SDS011;8702;48.130;-1.696;2022-11-04T13:20:46;9.45;;;2.20;;
17173;SDS011;8702;48.130;-1.696;2022-11-04T13:23:17;5.97;;;1.95;;
17173;SDS011;8702;48.130;-1.696;2022-11-04T13:25:49;8.27;;;2.33;;
17173;SDS011;8702;48.130;-1.696;2022-11-04T13:28:18;10.43;;;2.20;;
17173;SDS011;8702;48.130;-1.696;2022-11-04T13:30:48;13.13;;;2.15;;
17173;SDS011;8702;48.130;-1.696;2022-11-04T13:33:23;7.57;;;2.00;;
17173;SDS011;8702;48.130;-1.696;2022-11-04T13:36:03;8.77;;;2.00;;
17173;SDS011;8702;48.130;-1.696;2022-11-04T13:38:48;8.98;;;2.38;;
17173;SDS011;8702;48.130;-1.696;2022-11-04T13:44:12;7.68;;;1.92;;
17173;SDS011;8702;48.130;-1.696;2022-11-04T13:46:45;7.70;;;1.92;;
17173;SDS011;8702;48.130;-1.696;2022-11-04T13:49:18;8.15;;;2.08;;
17173;SDS011;8702;48.130;-1.696;2022-11-04T13:52:03;6.70;;;1.88;;
17173;SDS011;8702;48.130;-1.696;2022-11-04T13:54:33;7.25;;;2.20;;
17173;SDS011;8702;48.130;-1.696;2022-11-04T13:57:06;7.93;;;2.07;;
17173;SDS011;8702;48.130;-1.696;2022-11-04T13:59:37;5.20;;;1.88;;
17173;SDS011;8702;48.130;-1.696;2022-11-04T14:04:53;7.28;;;2.05;;
17173;SDS011;8702;48.130;-1.696;2022-11-04T14:16:01;6.05;;;2.17;;
17173;SDS011;8702;48.130;-1.696;2022-11-04T14:18:29;8.68;;;2.47;;
17173;SDS011;8702;48.130;-1.696;2022-11-04T14:21:00;8.07;;;2.03;;
17173;SDS011;8702;48.130;-1.696;2022-11-04T14:23:27;5.97;;;2.00;;
17173;SDS011;8702;48.130;-1.696;2022-11-04T14:25:58;6.93;;;2.10;;
17173;SDS011;8702;48.130;-1.696;2022-11-04T14:28:26;6.27;;;2.00;;
17173;SDS011;8702;48.130;-1.696;2022-11-04T14:30:55;5.78;;;1.88;;
17173;SDS011;8702;48.130;-1.696;2022-11-04T14:33:34;5.40;;;1.90;;
17173;SDS011;8702;48.130;-1.696;2022-11-04T14:36:13;7.05;;;2.03;;
17173;SDS011;8702;48.130;-1.696;2022-11-04T14:38:40;6.20;;;1.83;;
17173;SDS011;8702;48.130;-1.696;2022-11-04T14:41:13;5.82;;;1.95;;
17173;SDS011;8702;48.130;-1.696;2022-11-04T14:43:41;6.10;;;1.80;;
17173;SDS011;8702;48.130;-1.696;2022-11-04T14:46:10;9.00;;;1.83;;
17173;SDS011;8702;48.130;-1.696;2022-11-04T14:48:42;7.10;;;2.00;;
17173;SDS011;8702;48.130;-1.696;2022-11-04T14:51:19;6.80;;;1.90;;
17173;SDS011;8702;48.130;-1.696;2022-11-04T14:53:49;6.45;;;1.80;;
17173;SDS011;8702;48.130;-1.696;2022-11-04T14:56:20;4.63;;;1.45;;
17173;SDS011;8702;48.130;-1.696;2022-11-04T14:58:53;5.57;;;1.60;;
17173;SDS011;8702;48.130;-1.696;2022-11-04T15:01:22;5.70;;;1.70;;
17173;SDS011;8702;48.130;-1.696;2022-11-04T15:03:55;4.32;;;1.63;;
17173;SDS011;8702;48.130;-1.696;2022-11-04T15:06:29;5.68;;;1.70;;
17173;SDS011;8702;48.130;-1.696;2022-11-04T15:08:59;7.68;;;1.92;;
17173;SDS011;8702;48.130;-1.696;2022-11-04T15:11:27;6.68;;;1.83;;
17173;SDS011;8702;48.130;-1.696;2022-11-04T15:14:16;5.83;;;1.90;;
17173;SDS011;8702;48.130;-1.696;2022-11-04T15:16:44;6.17;;;1.57;;
17173;SDS011;8702;48.130;-1.696;2022-11-04T15:19:14;5.68;;;2.05;;
17173;SDS011;8702;48.130;-1.696;2022-11-04T15:21:45;6.00;;;1.80;;
17173;SDS011;8702;48.130;-1.696;2022-11-04T15:24:13;4.97;;;2.35;;
17173;SDS011;8702;48.130;-1.696;2022-11-04T15:26:41;5.38;;;2.17;;
17173;SDS011;8702;48.130;-1.696;2022-11-04T15:29:09;7.95;;;2.03;;
17173;SDS011;8702;48.130;-1.696;2022-11-04T15:31:38;6.18;;;2.30;;